createdAt,value
2019-01-15T00:02:58.400Z,16.43
2019-01-15T00:13:00.209Z,17.73
2019-01-15T00:23:02.117Z,35.10
2019-01-15T00:33:03.823Z,29.30
2019-01-15T00:43:05.832Z,26.00
2019-01-15T00:53:07.570Z,20.70
2019-01-15T01:03:09.344Z,10.67
2019-01-15T01:13:11.149Z,12.53
2019-01-15T01:23:12.651Z,13.60
2019-01-15T01:33:14.351Z,8.73
2019-01-15T01:43:16.160Z,8.10
2019-01-15T01:53:19.126Z,11.33
2019-01-15T02:03:20.742Z,18.10
2019-01-15T02:13:22.532Z,4.50
2019-01-15T02:23:24.106Z,7.90
2019-01-15T02:33:26.629Z,9.40
2019-01-15T02:43:28.438Z,13.90
2019-01-15T02:53:33.417Z,12.80
2019-01-15T03:03:34.918Z,6.60
2019-01-15T03:13:36.720Z,5.80
2019-01-15T03:23:38.222Z,10.67
2019-01-15T03:33:40.857Z,4.57
2019-01-15T03:43:42.658Z,16.20
2019-01-15T03:53:44.268Z,3.40
2019-01-15T04:03:45.857Z,5.13
2019-01-15T04:13:47.781Z,3.93
2019-01-15T04:23:49.369Z,19.10
2019-01-15T04:33:50.871Z,13.50
2019-01-15T04:43:52.577Z,8.43
2019-01-15T04:53:54.280Z,23.13
2019-01-15T05:03:55.774Z,7.83
2019-01-15T05:13:57.759Z,5.93
2019-01-15T05:23:59.264Z,10.70
2019-01-15T05:34:00.811Z,9.00
2019-01-15T05:44:03.477Z,5.63
2019-01-15T05:54:05.937Z,9.57
2019-01-15T06:04:07.944Z,8.27
2019-01-15T06:14:09.649Z,13.83
2019-01-15T06:24:11.154Z,13.23
2019-01-15T06:34:12.649Z,20.43
2019-01-15T06:44:14.355Z,14.93
2019-01-15T06:54:19.438Z,13.07
2019-01-15T07:04:20.932Z,33.57
2019-01-15T07:14:22.757Z,19.40
2019-01-15T07:24:25.277Z,16.23
2019-01-15T07:34:26.767Z,13.97
2019-01-15T07:44:28.471Z,41.70
2019-01-15T07:54:33.861Z,17.63
2019-01-15T08:04:35.357Z,18.00
2019-01-15T08:14:36.998Z,31.40
2019-01-15T08:24:38.573Z,43.80
2019-01-15T08:34:40.068Z,53.93
2019-01-15T08:44:42.278Z,31.67
2019-01-15T08:54:47.073Z,34.60
2019-01-15T09:04:48.569Z,49.87
2019-01-15T09:14:50.257Z,34.37
2019-01-15T09:24:51.767Z,38.53
2019-01-15T09:34:53.362Z,21.87
2019-01-15T09:44:55.489Z,25.93
2019-01-15T09:55:00.558Z,26.53
2019-01-15T10:05:04.245Z,27.33
2019-01-15T10:15:10.909Z,37.77
2019-01-15T10:25:15.576Z,24.50
2019-01-15T10:35:25.642Z,26.23
2019-01-15T10:45:27.414Z,24.27
2019-01-15T10:55:30.989Z,24.13
2019-01-15T11:05:32.765Z,30.87
2019-01-15T11:15:34.530Z,42.17
2019-01-15T11:25:36.174Z,52.53
2019-01-15T11:35:37.877Z,31.97
2019-01-15T11:45:39.685Z,19.90
2019-01-15T11:55:41.386Z,12.03
2019-01-15T12:05:47.806Z,20.10
2019-01-15T12:16:00.299Z,16.30
2019-01-15T12:26:06.878Z,15.43
2019-01-15T12:36:16.157Z,23.90
2019-01-15T12:46:18.282Z,22.73
2019-01-15T12:56:21.948Z,12.80
2019-01-15T13:24:23.840Z,22.97
2019-01-15T13:34:44.049Z,7.30
2019-01-15T13:44:45.545Z,9.70
2019-01-15T13:54:47.040Z,7.47
2019-01-15T14:05:13.942Z,7.43
2019-01-15T14:15:17.891Z,11.70
2019-01-15T14:25:40.693Z,17.93
2019-01-15T14:50:55.711Z,28.20
2019-01-15T15:01:15.849Z,23.17
2019-01-15T16:56:49.577Z,14.13
2019-01-15T17:06:56.808Z,19.63
2019-01-15T18:05:20.990Z,51.33
